Time;durP1;ratioP1;P1;durP2;ratioP2;P2;SDS_P1;SDS_P2;PMS_P1;PMS_P2;Temp;Humidity;BMP_temperature;BMP_pressure;BME280_temperature;BME280_humidity;BME280_pressure;Samples;Min_cycle;Max_cycle;Signal;HPM_P1;HPM_P2
2021/09/22 00:01:45;;;;;;;10.40;8.35;;;10.50;75.30;;;;;;4998489;28;20242;-68
2021/09/22 00:04:11;;;;;;;14.02;8.90;;;10.50;75.50;;;;;;5000406;28;20503;-68
2021/09/22 00:06:36;;;;;;;10.90;9.07;;;10.40;75.60;;;;;;4997891;28;20125;-68
2021/09/22 00:09:02;;;;;;;14.27;9.90;;;10.40;75.80;;;;;;4998080;28;20026;-67
2021/09/22 00:11:28;;;;;;;11.98;9.00;;;10.30;76.00;;;;;;4995324;28;20509;-68
2021/09/22 00:13:53;;;;;;;10.85;8.75;;;10.20;76.10;;;;;;4998274;28;20121;-66
2021/09/22 00:16:19;;;;;;;12.00;8.95;;;10.20;76.30;;;;;;4992093;28;20030;-68
2021/09/22 00:18:44;;;;;;;12.85;9.20;;;10.10;76.50;;;;;;4997809;28;20068;-67
2021/09/22 00:21:10;;;;;;;13.55;9.20;;;10.10;76.60;;;;;;4995884;28;20520;-67
2021/09/22 00:23:37;;;;;;;11.90;8.60;;;10.10;76.60;;;;;;4998070;28;20026;-67
2021/09/22 00:26:03;;;;;;;11.80;9.15;;;10.00;76.60;;;;;;4998362;28;20045;-67
2021/09/22 00:28:29;;;;;;;10.77;8.63;;;9.90;76.60;;;;;;4997305;28;20069;-68
2021/09/22 00:30:55;;;;;;;11.10;8.77;;;9.90;76.80;;;;;;4997845;28;20038;-68
2021/09/22 00:33:20;;;;;;;12.98;8.68;;;9.90;76.90;;;;;;4995152;28;20038;-68
2021/09/22 00:35:46;;;;;;;11.10;8.70;;;9.90;76.90;;;;;;4996819;28;20129;-69
2021/09/22 00:38:12;;;;;;;12.32;8.73;;;9.90;77.00;;;;;;4996516;28;20125;-67
2021/09/22 00:40:37;;;;;;;9.55;7.80;;;9.90;77.00;;;;;;4997407;28;20062;-67
2021/09/22 00:43:03;;;;;;;10.43;7.93;;;9.80;77.00;;;;;;4997160;28;20394;-68
2021/09/22 00:45:30;;;;;;;11.73;8.93;;;9.80;77.30;;;;;;4997890;28;20048;-67
2021/09/22 00:47:55;;;;;;;10.30;8.02;;;9.80;77.50;;;;;;4997031;28;20049;-67
2021/09/22 00:50:21;;;;;;;10.23;7.47;;;9.90;77.50;;;;;;5002961;28;20042;-68
2021/09/22 00:52:47;;;;;;;10.13;8.45;;;9.90;77.30;;;;;;4997192;28;20045;-67
2021/09/22 00:55:13;;;;;;;11.02;8.15;;;9.90;77.10;;;;;;4999386;28;20120;-69
2021/09/22 00:57:59;;;;;;;12.40;8.63;;;10.00;77.00;;;;;;5011916;28;20049;-67
2021/09/22 01:00:27;;;;;;;10.55;7.95;;;10.00;77.50;;;;;;5000969;28;20037;-68
2021/09/22 01:02:53;;;;;;;10.38;7.80;;;10.00;77.20;;;;;;5001319;28;20121;-65
2021/09/22 01:05:25;;;;;;;12.40;7.97;;;10.00;77.00;;;;;;5002102;28;20063;-69
2021/09/22 01:07:52;;;;;;;9.63;7.90;;;10.10;77.10;;;;;;5002625;28;20037;-68
2021/09/22 01:10:19;;;;;;;9.40;7.20;;;10.20;76.90;;;;;;5000784;28;20084;-67
2021/09/22 01:12:45;;;;;;;10.07;8.23;;;10.20;76.80;;;;;;4998289;28;20041;-68
2021/09/22 01:15:23;;;;;;;10.40;8.00;;;10.20;76.50;;;;;;5002286;28;20508;-67
2021/09/22 01:17:50;;;;;;;11.65;8.35;;;10.30;76.10;;;;;;5002564;28;20121;-67
2021/09/22 01:20:16;;;;;;;10.25;8.15;;;10.30;75.70;;;;;;5000643;28;20040;-68
2021/09/22 01:22:42;;;;;;;11.80;8.45;;;10.30;75.60;;;;;;4999430;28;20393;-67
2021/09/22 01:25:11;;;;;;;11.60;8.57;;;10.20;75.40;;;;;;5001286;28;20042;-68
2021/09/22 01:27:52;;;;;;;12.63;9.07;;;10.20;75.40;;;;;;5001871;28;20042;-67
2021/09/22 01:30:18;;;;;;;10.32;8.32;;;10.10;75.80;;;;;;5001665;28;20033;-67
2021/09/22 01:33:08;;;;;;;13.30;9.05;;;10.10;75.60;;;;;;4999795;28;20049;-67
2021/09/22 01:35:36;;;;;;;10.27;8.35;;;10.00;76.00;;;;;;5002937;28;20113;-69
2021/09/22 01:38:06;;;;;;;11.95;8.52;;;10.00;75.90;;;;;;5000749;28;20121;-68
2021/09/22 01:40:31;;;;;;;13.70;9.05;;;10.00;75.80;;;;;;4998891;28;20129;-68
2021/09/22 01:42:57;;;;;;;11.75;8.93;;;9.90;75.80;;;;;;5000677;28;20715;-67
2021/09/22 01:45:23;;;;;;;12.27;9.43;;;9.90;76.00;;;;;;4999755;28;20104;-68
2021/09/22 01:47:49;;;;;;;12.18;9.30;;;9.80;76.40;;;;;;4998139;28;20417;-67
2021/09/22 01:50:18;;;;;;;14.00;9.38;;;9.80;76.70;;;;;;5002756;28;20069;-67
2021/09/22 01:52:45;;;;;;;13.00;8.55;;;9.80;76.80;;;;;;5016285;28;20107;-67
2021/09/22 01:55:12;;;;;;;11.77;8.38;;;9.90;76.80;;;;;;4998729;28;20464;-67
2021/09/22 01:57:37;;;;;;;11.05;8.73;;;9.90;76.80;;;;;;5002548;28;20054;-67
2021/09/22 02:00:06;;;;;;;11.70;8.63;;;9.90;76.70;;;;;;5001595;28;20080;-68
2021/09/22 02:02:31;;;;;;;11.43;8.90;;;9.90;76.50;;;;;;5001793;28;20097;-67
2021/09/22 02:04:58;;;;;;;12.80;8.90;;;10.00;76.30;;;;;;5002146;28;20045;-67
2021/09/22 02:07:23;;;;;;;12.02;9.13;;;9.90;76.20;;;;;;5001370;28;20030;-67
2021/09/22 02:09:49;;;;;;;12.77;9.38;;;9.90;76.20;;;;;;4998423;28;20022;-67
2021/09/22 02:12:15;;;;;;;12.70;9.15;;;9.90;76.10;;;;;;4995342;28;20124;-69
2021/09/22 02:14:40;;;;;;;11.75;8.82;;;9.90;76.10;;;;;;4998016;28;20121;-67
2021/09/22 02:17:06;;;;;;;13.10;8.85;;;9.90;76.30;;;;;;4999013;28;20029;-67
2021/09/22 02:19:32;;;;;;;13.18;9.00;;;9.80;76.50;;;;;;4996660;28;20132;-67
2021/09/22 02:21:58;;;;;;;12.07;9.07;;;9.80;76.30;;;;;;4997526;28;20037;-69
2021/09/22 02:24:23;;;;;;;11.52;9.20;;;9.80;76.30;;;;;;4999307;28;20037;-68
2021/09/22 02:26:51;;;;;;;12.15;9.07;;;9.80;76.20;;;;;;4998088;28;20041;-67
2021/09/22 02:29:18;;;;;;;13.43;9.20;;;9.80;76.50;;;;;;5001203;28;20037;-67
2021/09/22 02:31:44;;;;;;;12.02;9.20;;;9.70;76.60;;;;;;4999386;28;20059;-65
2021/09/22 02:34:10;;;;;;;13.32;9.35;;;9.70;76.60;;;;;;4998257;28;20524;-67
2021/09/22 02:36:35;;;;;;;13.68;9.65;;;9.70;76.50;;;;;;4997643;28;20029;-67
2021/09/22 02:39:01;;;;;;;12.93;9.23;;;9.70;76.50;;;;;;4998202;28;20068;-67
2021/09/22 02:41:27;;;;;;;12.85;9.13;;;9.70;76.60;;;;;;5002023;28;20039;-67
2021/09/22 02:43:52;;;;;;;10.85;8.82;;;9.70;76.50;;;;;;4998652;28;20030;-68
2021/09/22 02:46:18;;;;;;;13.90;9.70;;;9.80;76.30;;;;;;4998272;28;20041;-66
2021/09/22 02:48:44;;;;;;;14.15;9.40;;;9.80;76.00;;;;;;5002125;28;20029;-67
2021/09/22 02:51:09;;;;;;;12.18;9.05;;;9.70;76.70;;;;;;4998491;28;20503;-67
2021/09/22 02:53:35;;;;;;;16.48;9.32;;;9.70;75.90;;;;;;4999184;28;20034;-67
2021/09/22 02:56:00;;;;;;;15.52;9.93;;;9.60;76.00;;;;;;4999079;28;20057;-68
2021/09/22 02:58:26;;;;;;;18.17;9.13;;;9.50;76.10;;;;;;4999079;28;20030;-67
2021/09/22 03:00:52;;;;;;;14.35;10.15;;;9.50;76.30;;;;;;4997472;28;20034;-67
2021/09/22 03:03:17;;;;;;;12.75;10.23;;;9.40;76.80;;;;;;4997910;28;20058;-68
2021/09/22 03:05:43;;;;;;;13.00;9.63;;;9.40;77.20;;;;;;5000695;28;20049;-68
2021/09/22 03:08:08;;;;;;;14.02;10.20;;;9.40;77.30;;;;;;5000245;28;20041;-67
2021/09/22 03:10:35;;;;;;;11.85;9.00;;;9.50;77.30;;;;;;4998671;28;20073;-68
2021/09/22 03:13:01;;;;;;;12.88;9.30;;;9.50;77.20;;;;;;4998539;28;20045;-67
2021/09/22 03:15:27;;;;;;;12.52;8.98;;;9.50;77.30;;;;;;4999280;28;20088;-67
2021/09/22 03:17:52;;;;;;;11.90;9.05;;;9.50;77.20;;;;;;4997664;28;20417;-66
2021/09/22 03:20:18;;;;;;;13.57;9.20;;;9.50;76.90;;;;;;4996400;28;20069;-67
2021/09/22 03:22:44;;;;;;;12.93;9.75;;;9.50;76.50;;;;;;4995982;28;21833;-67
2021/09/22 03:25:10;;;;;;;13.40;9.48;;;9.60;76.30;;;;;;5001071;28;20045;-67
2021/09/22 03:27:37;;;;;;;12.60;9.50;;;9.50;76.20;;;;;;5001741;28;20030;-66
2021/09/22 03:30:05;;;;;;;11.30;9.07;;;9.40;76.10;;;;;;4998061;28;20080;-69
2021/09/22 03:32:31;;;;;;;11.80;8.95;;;9.40;76.30;;;;;;4997286;28;20034;-67
2021/09/22 03:34:56;;;;;;;12.50;9.23;;;9.40;76.40;;;;;;4997784;28;20135;-68
2021/09/22 03:37:22;;;;;;;12.88;9.68;;;9.40;76.70;;;;;;4994999;28;20978;-67
2021/09/22 03:39:47;;;;;;;13.07;9.57;;;9.30;76.70;;;;;;4995863;28;22552;-66
2021/09/22 03:42:13;;;;;;;12.90;9.82;;;9.30;76.80;;;;;;4997477;28;20512;-66
2021/09/22 03:44:39;;;;;;;13.07;9.57;;;9.30;76.80;;;;;;4996496;28;20037;-67
2021/09/22 03:47:05;;;;;;;14.80;10.18;;;9.30;76.80;;;;;;4997820;28;20133;-67
2021/09/22 03:49:30;;;;;;;13.23;9.43;;;9.30;76.70;;;;;;5013147;28;20062;-67
2021/09/22 03:51:56;;;;;;;13.07;9.38;;;9.20;76.70;;;;;;4997679;28;20125;-67
2021/09/22 03:54:22;;;;;;;16.55;10.45;;;9.20;77.00;;;;;;4998594;28;20030;-67
2021/09/22 03:56:47;;;;;;;13.68;9.88;;;9.20;77.10;;;;;;4996199;28;20489;-68
2021/09/22 03:59:14;;;;;;;13.05;9.63;;;9.20;77.20;;;;;;4997915;28;20496;-67
2021/09/22 04:01:40;;;;;;;12.35;9.20;;;9.30;77.40;;;;;;4996974;28;20408;-67
2021/09/22 04:04:05;;;;;;;13.25;9.55;;;9.20;77.50;;;;;;4997809;28;20030;-67
2021/09/22 04:06:31;;;;;;;13.32;9.40;;;9.30;77.50;;;;;;4998372;28;20033;-68
2021/09/22 04:08:57;;;;;;;12.02;8.70;;;9.30;77.50;;;;;;4998021;28;20668;-67
2021/09/22 04:11:22;;;;;;;12.10;8.88;;;9.30;77.50;;;;;;4999094;28;20034;-66
2021/09/22 04:13:49;;;;;;;12.15;9.32;;;9.40;78.20;;;;;;4996343;28;20039;-67
2021/09/22 04:16:15;;;;;;;12.13;9.60;;;9.40;76.90;;;;;;4996472;28;20095;-66
2021/09/22 04:18:40;;;;;;;10.57;8.98;;;9.50;76.70;;;;;;4996733;28;20026;-64
2021/09/22 04:21:06;;;;;;;14.25;8.43;;;9.50;76.50;;;;;;4997879;28;20504;-67
2021/09/22 04:23:32;;;;;;;12.90;9.15;;;9.50;76.10;;;;;;4996206;28;20046;-67
2021/09/22 04:25:58;;;;;;;11.07;8.88;;;9.50;76.00;;;;;;4999449;28;20049;-68
2021/09/22 04:28:23;;;;;;;12.73;8.55;;;9.50;75.90;;;;;;4997945;28;20058;-67
2021/09/22 04:30:49;;;;;;;10.32;8.40;;;9.40;75.80;;;;;;4998366;28;20034;-68
2021/09/22 04:33:15;;;;;;;12.07;8.73;;;9.40;75.80;;;;;;4998124;28;20038;-66
2021/09/22 04:35:40;;;;;;;11.40;8.82;;;9.40;75.60;;;;;;4999381;28;20057;-67
2021/09/22 04:38:07;;;;;;;10.35;8.50;;;9.40;75.60;;;;;;5002694;28;20038;-67
2021/09/22 04:40:33;;;;;;;10.18;8.02;;;9.40;75.70;;;;;;5003555;28;20031;-66
2021/09/22 04:42:59;;;;;;;10.90;8.00;;;9.40;75.70;;;;;;5002842;28;20137;-67
2021/09/22 04:45:26;;;;;;;7.82;6.03;;;9.40;75.60;;;;;;5003351;28;20080;-67
2021/09/22 04:47:55;;;;;;;7.43;5.60;;;9.40;75.50;;;;;;5003474;28;20038;-67
2021/09/22 04:50:22;;;;;;;7.80;5.97;;;9.30;75.40;;;;;;5001975;28;20026;-66
2021/09/22 04:52:48;;;;;;;5.93;5.32;;;9.30;75.30;;;;;;4999325;28;20066;-67
2021/09/22 04:55:13;;;;;;;7.43;6.25;;;9.30;75.30;;;;;;4982521;28;20113;-66
2021/09/22 04:57:40;;;;;;;7.68;6.25;;;9.20;75.00;;;;;;4983817;28;20039;-66
2021/09/22 05:00:07;;;;;;;10.35;7.35;;;9.20;75.00;;;;;;4982144;28;20039;-67
2021/09/22 05:02:33;;;;;;;10.18;8.15;;;9.10;75.30;;;;;;4981302;28;20035;-68
2021/09/22 05:04:58;;;;;;;11.70;7.90;;;9.10;75.40;;;;;;4981965;28;20045;-68
2021/09/22 05:07:24;;;;;;;10.50;8.15;;;9.10;75.60;;;;;;4982419;28;20103;-67
2021/09/22 05:09:49;;;;;;;10.65;8.48;;;9.00;75.50;;;;;;4982455;28;20507;-69
2021/09/22 05:12:15;;;;;;;12.35;8.43;;;9.00;75.40;;;;;;4981532;28;20031;-67
2021/09/22 05:14:41;;;;;;;10.80;8.55;;;9.00;75.40;;;;;;4982302;28;20043;-67
2021/09/22 05:17:07;;;;;;;10.60;8.15;;;8.90;75.50;;;;;;4982465;28;20027;-67
2021/09/22 05:19:32;;;;;;;17.45;8.35;;;8.90;75.80;;;;;;4982373;28;21195;-67
2021/09/22 05:21:58;;;;;;;11.70;8.63;;;8.90;76.30;;;;;;4981773;28;20520;-67
2021/09/22 05:24:24;;;;;;;13.25;8.80;;;8.90;76.50;;;;;;4981612;28;20122;-67
2021/09/22 05:26:50;;;;;;;13.27;9.45;;;8.90;76.80;;;;;;4983238;28;20409;-67
2021/09/22 05:29:15;;;;;;;12.20;9.25;;;8.90;76.20;;;;;;4981318;28;20114;-67
2021/09/22 05:31:41;;;;;;;16.92;9.98;;;9.00;76.10;;;;;;4983301;28;20172;-67
2021/09/22 05:34:08;;;;;;;12.32;9.13;;;8.90;76.00;;;;;;4982121;28;20260;-66
2021/09/22 05:36:33;;;;;;;11.50;9.13;;;8.90;76.00;;;;;;4980896;28;20093;-68
2021/09/22 05:38:59;;;;;;;14.40;9.85;;;8.90;76.10;;;;;;4981968;28;20030;-66
2021/09/22 05:41:25;;;;;;;13.50;8.55;;;8.90;76.30;;;;;;4982246;28;20497;-67
2021/09/22 05:43:50;;;;;;;12.48;8.85;;;8.90;76.60;;;;;;4982214;28;20039;-66
2021/09/22 05:46:16;;;;;;;11.25;9.00;;;8.90;76.80;;;;;;4981789;28;20046;-69
2021/09/22 05:48:41;;;;;;;14.70;10.20;;;8.90;77.00;;;;;;4982353;28;20045;-67
2021/09/22 05:51:07;;;;;;;14.55;10.18;;;9.00;77.20;;;;;;4981341;28;20054;-66
2021/09/22 05:53:32;;;;;;;15.10;9.75;;;9.00;77.30;;;;;;4979698;28;20405;-67
2021/09/22 05:55:58;;;;;;;16.70;9.82;;;9.10;77.30;;;;;;4981706;28;20130;-67
2021/09/22 05:58:24;;;;;;;14.27;9.45;;;9.10;77.20;;;;;;4981322;28;20030;-66
2021/09/22 06:00:52;;;;;;;14.18;8.93;;;9.20;77.20;;;;;;4981043;28;20039;-67
2021/09/22 06:03:18;;;;;;;13.45;9.57;;;9.20;77.10;;;;;;4982253;28;20312;-67
2021/09/22 06:05:43;;;;;;;13.45;9.15;;;9.20;77.10;;;;;;4982231;28;20116;-67
2021/09/22 06:08:09;;;;;;;13.27;8.77;;;9.20;77.20;;;;;;4982149;28;20113;-68
2021/09/22 06:10:36;;;;;;;9.90;8.30;;;9.30;77.30;;;;;;4982656;28;20038;-68
2021/09/22 06:13:03;;;;;;;11.40;7.90;;;9.30;77.30;;;;;;4981104;28;20300;-66
2021/09/22 06:15:29;;;;;;;11.57;8.23;;;9.40;77.30;;;;;;4982311;28;20042;-67
2021/09/22 06:17:54;;;;;;;14.32;8.32;;;9.40;77.20;;;;;;4981904;28;20026;-66
2021/09/22 06:20:20;;;;;;;14.80;8.27;;;9.40;77.20;;;;;;4981237;28;20030;-67
2021/09/22 06:22:45;;;;;;;15.70;8.63;;;9.40;77.20;;;;;;4981385;28;20034;-67
2021/09/22 06:25:13;;;;;;;17.33;8.55;;;9.50;77.30;;;;;;4981621;28;20043;-67
2021/09/22 06:27:40;;;;;;;16.48;8.82;;;9.50;77.30;;;;;;4981636;28;20043;-67
2021/09/22 06:30:06;;;;;;;16.52;10.20;;;9.60;77.30;;;;;;4981627;28;20452;-66
2021/09/22 06:32:32;;;;;;;16.33;10.45;;;9.60;77.30;;;;;;4980878;28;20038;-68
2021/09/22 06:34:58;;;;;;;19.65;11.60;;;9.70;77.30;;;;;;4981515;28;20057;-67
2021/09/22 06:37:23;;;;;;;19.05;11.88;;;9.70;77.30;;;;;;4979541;28;20085;-66
2021/09/22 06:39:49;;;;;;;19.10;12.23;;;9.70;77.40;;;;;;4982734;28;20027;-67
2021/09/22 06:42:14;;;;;;;16.88;12.85;;;9.80;77.50;;;;;;4980240;28;20046;-68
2021/09/22 06:44:40;;;;;;;18.67;12.60;;;9.80;77.70;;;;;;4981749;28;20456;-67
2021/09/22 06:47:06;;;;;;;18.00;12.73;;;9.80;77.90;;;;;;4981456;28;20073;-67
2021/09/22 06:49:31;;;;;;;17.77;12.10;;;9.80;78.00;;;;;;4982049;28;20430;-67
2021/09/22 06:51:57;;;;;;;20.63;11.38;;;9.80;78.10;;;;;;4980507;28;20133;-68
2021/09/22 06:54:23;;;;;;;18.60;12.15;;;9.90;78.40;;;;;;4980638;28;20042;-67
2021/09/22 06:56:49;;;;;;;20.20;12.60;;;9.90;78.60;;;;;;4980323;28;20644;-66
2021/09/22 06:59:15;;;;;;;19.67;12.02;;;10.00;78.60;;;;;;4980368;28;20076;-67
2021/09/22 07:01:41;;;;;;;18.10;13.05;;;10.00;78.60;;;;;;4979330;28;20038;-68
2021/09/22 07:04:07;;;;;;;17.83;12.30;;;10.00;78.70;;;;;;4977991;28;20033;-67
2021/09/22 07:06:33;;;;;;;18.23;12.35;;;10.00;78.80;;;;;;4979516;28;20089;-67
2021/09/22 07:08:59;;;;;;;19.33;13.10;;;10.10;79.00;;;;;;4979330;28;20084;-68
2021/09/22 07:11:24;;;;;;;16.52;13.07;;;10.20;79.10;;;;;;4980572;28;20038;-67
2021/09/22 07:13:50;;;;;;;19.35;13.18;;;10.20;79.10;;;;;;4979529;28;20595;-67
2021/09/22 07:16:16;;;;;;;19.35;12.68;;;10.30;79.30;;;;;;4980444;28;20116;-68
2021/09/22 07:18:43;;;;;;;16.83;12.77;;;10.30;79.70;;;;;;4979222;28;20070;-69
2021/09/22 07:21:10;;;;;;;19.65;14.18;;;10.30;80.00;;;;;;4980582;28;20521;-68
2021/09/22 07:23:36;;;;;;;18.15;13.68;;;10.40;80.00;;;;;;4979576;28;20050;-68
2021/09/22 07:26:03;;;;;;;18.27;12.55;;;10.40;79.80;;;;;;4979926;28;20034;-68
2021/09/22 07:28:30;;;;;;;17.58;13.55;;;10.50;79.80;;;;;;4994621;28;20505;-68
2021/09/22 07:30:56;;;;;;;17.27;12.70;;;10.50;79.80;;;;;;4980365;28;20485;-67
2021/09/22 07:33:22;;;;;;;17.10;13.05;;;10.60;79.50;;;;;;4979940;28;20051;-67
2021/09/22 07:35:48;;;;;;;18.75;12.90;;;10.70;79.30;;;;;;4979613;28;20262;-67
2021/09/22 07:38:14;;;;;;;20.27;14.27;;;10.70;79.30;;;;;;4980940;28;20445;-68
2021/09/22 07:40:40;;;;;;;18.52;13.90;;;10.80;79.30;;;;;;4978245;28;20038;-68
2021/09/22 07:43:06;;;;;;;19.40;13.68;;;10.80;79.10;;;;;;4979973;28;20034;-67
2021/09/22 07:45:32;;;;;;;20.05;14.25;;;10.90;79.30;;;;;;4979568;28;20532;-68
2021/09/22 07:47:58;;;;;;;20.52;14.27;;;10.90;79.40;;;;;;4980098;28;20622;-69
2021/09/22 07:50:24;;;;;;;17.83;13.98;;;11.00;79.50;;;;;;4978907;28;20528;-67
2021/09/22 07:52:50;;;;;;;17.90;13.73;;;11.00;79.40;;;;;;4978914;28;20050;-68
2021/09/22 07:55:17;;;;;;;21.75;14.15;;;11.10;79.30;;;;;;4980185;28;20038;-68
2021/09/22 07:57:42;;;;;;;18.10;13.45;;;11.20;79.40;;;;;;4979573;28;20026;-68
2021/09/22 08:00:10;;;;;;;19.52;14.23;;;11.30;80.40;;;;;;4979296;28;20041;-67
2021/09/22 08:02:36;;;;;;;17.63;13.27;;;11.30;79.60;;;;;;4977830;28;20085;-67
2021/09/22 08:05:02;;;;;;;16.27;12.52;;;11.40;79.60;;;;;;4980485;28;20527;-68
2021/09/22 08:07:27;;;;;;;17.70;13.90;;;11.60;79.60;;;;;;4979207;28;20034;-67
2021/09/22 08:09:53;;;;;;;18.40;13.43;;;11.70;79.60;;;;;;4976832;28;20037;-67
2021/09/22 08:12:18;;;;;;;18.95;13.25;;;11.80;79.40;;;;;;4979258;28;20030;-68
2021/09/22 08:14:44;;;;;;;18.08;13.13;;;11.90;79.00;;;;;;4979195;28;20061;-67
2021/09/22 08:17:12;;;;;;;16.27;12.43;;;12.00;78.70;;;;;;4978381;28;20520;-67
2021/09/22 08:19:38;;;;;;;15.55;12.57;;;12.00;78.50;;;;;;4979843;28;20035;-68
2021/09/22 08:22:05;;;;;;;19.25;12.77;;;12.10;79.50;;;;;;4979544;28;20034;-68
2021/09/22 08:24:31;;;;;;;16.52;13.45;;;12.20;79.50;;;;;;4979220;28;20039;-68
2021/09/22 08:26:57;;;;;;;16.20;13.35;;;12.30;78.10;;;;;;4978540;28;20038;-68
2021/09/22 08:29:23;;;;;;;14.82;12.07;;;12.40;77.60;;;;;;4979229;28;20387;-68
2021/09/22 08:31:50;;;;;;;15.48;12.73;;;12.50;77.60;;;;;;4979238;28;20043;-67
2021/09/22 08:34:16;;;;;;;18.10;13.23;;;12.60;77.60;;;;;;4978154;28;20485;-68
2021/09/22 08:36:44;;;;;;;16.13;13.13;;;12.70;77.70;;;;;;4978571;28;20118;-68
2021/09/22 08:39:11;;;;;;;18.05;13.65;;;12.80;77.60;;;;;;4979600;28;20460;-69
2021/09/22 08:41:37;;;;;;;18.38;13.88;;;12.90;77.40;;;;;;4978427;28;20540;-69
2021/09/22 08:44:04;;;;;;;15.68;13.02;;;12.90;77.00;;;;;;4978775;28;20375;-68
2021/09/22 08:46:34;;;;;;;15.80;13.02;;;13.00;76.80;;;;;;4978108;28;20093;-69
2021/09/22 08:49:02;;;;;;;19.00;14.73;;;13.10;76.60;;;;;;4979539;28;20126;-68
2021/09/22 08:51:28;;;;;;;17.50;13.85;;;13.20;77.30;;;;;;4978845;28;20041;-68
2021/09/22 08:53:54;;;;;;;18.08;13.93;;;13.30;76.20;;;;;;4978007;28;20602;-68
2021/09/22 08:56:20;;;;;;;17.95;13.95;;;13.40;76.00;;;;;;4979215;28;20042;-68
2021/09/22 08:58:45;;;;;;;15.45;12.52;;;13.50;75.80;;;;;;4977108;28;20035;-69
2021/09/22 09:01:14;;;;;;;15.25;13.02;;;13.60;75.90;;;;;;4979149;28;20039;-68
2021/09/22 09:03:42;;;;;;;16.33;13.05;;;13.70;75.60;;;;;;4978024;28;20031;-68
2021/09/22 09:06:25;;;;;;;16.48;13.10;;;13.70;75.30;;;;;;4979295;28;20034;-68
2021/09/22 09:08:57;;;;;;;16.17;12.75;;;13.80;74.80;;;;;;4998334;28;20104;-68
2021/09/22 09:11:24;;;;;;;18.75;13.57;;;13.90;75.50;;;;;;4998922;28;20045;-68
2021/09/22 09:13:55;;;;;;;16.70;13.18;;;14.00;74.40;;;;;;5011311;28;20042;-68
2021/09/22 09:16:22;;;;;;;16.20;13.27;;;14.10;74.20;;;;;;4997506;28;20509;-68
2021/09/22 09:18:54;;;;;;;18.60;12.57;;;14.10;73.90;;;;;;4997957;28;20065;-68
2021/09/22 09:21:21;;;;;;;16.52;12.95;;;14.20;73.50;;;;;;4999286;28;20069;-69
2021/09/22 09:23:48;;;;;;;14.05;12.45;;;14.20;73.50;;;;;;5001763;28;20041;-68
2021/09/22 09:26:18;;;;;;;15.13;12.82;;;14.30;73.30;;;;;;5002413;28;20022;-69
2021/09/22 09:28:49;;;;;;;15.18;11.68;;;14.40;73.20;;;;;;5001760;28;20030;-69
2021/09/22 09:31:14;;;;;;;17.25;13.45;;;14.50;73.10;;;;;;5003062;28;20038;-68
2021/09/22 09:33:52;;;;;;;15.35;13.50;;;14.50;73.10;;;;;;5000750;28;20077;-70
2021/09/22 09:36:20;;;;;;;14.43;12.65;;;14.60;71.60;;;;;;5000957;28;20056;-69
2021/09/22 09:39:11;;;;;;;17.02;12.75;;;14.70;72.30;;;;;;5002108;28;20209;-68
2021/09/22 09:41:49;;;;;;;11.23;9.93;;;14.70;72.30;;;;;;5002279;28;20050;-69
2021/09/22 09:44:21;;;;;;;10.48;9.27;;;14.80;71.30;;;;;;5001302;28;20029;-69
2021/09/22 09:46:48;;;;;;;11.45;8.95;;;14.90;71.10;;;;;;5002209;28;20485;-69
2021/09/22 09:49:22;;;;;;;11.27;9.75;;;14.90;70.40;;;;;;5001861;28;20065;-69
2021/09/22 09:51:54;;;;;;;11.00;9.73;;;15.00;69.00;;;;;;5001153;28;20103;-69
2021/09/22 09:54:23;;;;;;;11.05;9.13;;;15.10;69.80;;;;;;5000924;28;20404;-68
2021/09/22 09:56:59;;;;;;;11.85;8.35;;;15.20;68.70;;;;;;5002076;28;20029;-69
2021/09/22 09:59:25;;;;;;;10.50;8.20;;;15.30;68.00;;;;;;5001250;28;20699;-70
2021/09/22 10:01:55;;;;;;;8.43;7.43;;;15.40;68.30;;;;;;5001565;28;20041;-67
2021/09/22 10:04:23;;;;;;;9.48;8.38;;;15.40;67.90;;;;;;5001281;28;20036;-68
2021/09/22 10:06:49;;;;;;;9.35;7.95;;;15.50;67.40;;;;;;5000049;28;20057;-69
2021/09/22 10:09:16;;;;;;;9.75;8.13;;;15.60;67.40;;;;;;5000638;28;20037;-68
2021/09/22 10:11:47;;;;;;;7.80;6.75;;;15.60;67.30;;;;;;5000631;28;20100;-70
2021/09/22 10:14:15;;;;;;;8.50;7.15;;;15.70;66.60;;;;;;5000310;28;20050;-68
2021/09/22 10:16:42;;;;;;;7.78;6.95;;;15.80;66.30;;;;;;4999538;28;20030;-68
2021/09/22 10:19:09;;;;;;;8.68;7.28;;;15.90;66.60;;;;;;5000930;28;20453;-69
2021/09/22 10:21:37;;;;;;;8.38;7.03;;;16.00;66.40;;;;;;5001887;28;20041;-69
2021/09/22 10:24:07;;;;;;;9.18;7.25;;;16.10;66.00;;;;;;5001131;28;20034;-68
2021/09/22 10:26:33;;;;;;;6.85;6.15;;;16.20;65.50;;;;;;5015489;28;20049;-69
2021/09/22 10:29:00;;;;;;;9.77;6.72;;;16.30;65.20;;;;;;5000947;28;20042;-69
2021/09/22 10:31:29;;;;;;;7.35;6.45;;;16.40;65.20;;;;;;5003503;28;20085;-68
2021/09/22 10:33:57;;;;;;;10.60;6.38;;;16.50;64.30;;;;;;4998935;28;20481;-69
2021/09/22 10:36:43;;;;;;;7.57;5.85;;;16.50;64.50;;;;;;4999966;28;20062;-69
2021/09/22 10:39:25;;;;;;;6.72;5.78;;;16.60;62.60;;;;;;5001121;28;20035;-69
2021/09/22 10:41:50;;;;;;;6.55;5.82;;;16.70;63.20;;;;;;5014531;28;20036;-69
2021/09/22 10:44:42;;;;;;;6.55;5.85;;;16.70;64.00;;;;;;5000193;28;20113;-68
2021/09/22 10:47:28;;;;;;;8.77;6.75;;;16.80;61.80;;;;;;4995059;28;20053;-69
2021/09/22 10:49:54;;;;;;;8.55;6.63;;;16.90;61.60;;;;;;5000581;28;20429;-69
2021/09/22 10:52:33;;;;;;;7.32;6.55;;;16.90;62.50;;;;;;4998668;28;20395;-69
2021/09/22 10:55:17;;;;;;;6.82;6.13;;;16.90;60.80;;;;;;5000175;28;20084;-68
2021/09/22 10:57:48;;;;;;;6.95;6.25;;;17.00;61.50;;;;;;4998843;28;20034;-68
2021/09/22 11:00:18;;;;;;;6.90;6.10;;;17.00;61.60;;;;;;4999833;28;20053;-68
2021/09/22 11:02:46;;;;;;;7.20;5.57;;;17.00;61.60;;;;;;4999478;28;20493;-68
2021/09/22 11:05:35;;;;;;;5.30;4.80;;;17.10;61.60;;;;;;4999270;28;20133;-68
2021/09/22 11:08:08;;;;;;;5.22;4.75;;;17.20;60.80;;;;;;4994824;28;20033;-68
2021/09/22 11:10:53;;;;;;;5.32;4.82;;;17.30;62.00;;;;;;4998611;28;20026;-68
2021/09/22 11:13:19;;;;;;;5.78;4.93;;;17.30;61.50;;;;;;5000202;28;20100;-69
2021/09/22 11:15:46;;;;;;;4.80;4.40;;;17.40;60.50;;;;;;5000262;28;20042;-68
2021/09/22 11:18:12;;;;;;;4.97;4.47;;;17.40;61.20;;;;;;4998620;28;20038;-68
2021/09/22 11:20:38;;;;;;;5.00;4.57;;;17.50;61.00;;;;;;4999215;28;20038;-69
2021/09/22 11:23:11;;;;;;;6.40;5.00;;;17.50;61.00;;;;;;4997392;28;20092;-69
2021/09/22 11:25:37;;;;;;;5.38;4.63;;;17.60;59.60;;;;;;5001368;28;20050;-68
2021/09/22 11:28:08;;;;;;;4.07;3.70;;;17.60;60.30;;;;;;4998935;28;20121;-69
2021/09/22 11:30:34;;;;;;;3.75;3.33;;;17.70;59.90;;;;;;4999950;28;20121;-68
2021/09/22 11:33:00;;;;;;;4.72;3.63;;;17.80;60.60;;;;;;4997709;28;20046;-68
2021/09/22 11:35:29;;;;;;;5.47;3.60;;;17.80;60.30;;;;;;4999030;28;20433;-68
2021/09/22 11:37:57;;;;;;;4.07;3.67;;;17.90;59.50;;;;;;4998416;28;20052;-68
2021/09/22 11:40:31;;;;;;;4.30;3.90;;;18.00;59.90;;;;;;4998937;28;20440;-68
2021/09/22 11:43:12;;;;;;;3.78;3.47;;;18.10;59.30;;;;;;4999502;28;20061;-68
2021/09/22 11:45:46;;;;;;;4.75;3.63;;;18.20;59.50;;;;;;4999618;28;20065;-68
2021/09/22 11:48:13;;;;;;;3.53;3.10;;;18.20;59.00;;;;;;5013544;28;20038;-69
2021/09/22 11:50:44;;;;;;;2.80;2.60;;;18.30;59.50;;;;;;4998784;28;20030;-68
2021/09/22 11:53:29;;;;;;;2.80;2.60;;;18.40;59.00;;;;;;4998498;28;20175;-68
2021/09/22 11:55:55;;;;;;;2.90;2.58;;;18.50;58.10;;;;;;4999631;28;20118;-68
2021/09/22 11:58:25;;;;;;;3.53;2.42;;;18.50;58.70;;;;;;4999803;28;20030;-69
2021/09/22 12:00:53;;;;;;;2.47;2.28;;;18.50;58.20;;;;;;4999528;28;20035;-68
2021/09/22 12:03:24;;;;;;;2.33;2.15;;;18.60;58.20;;;;;;4998256;28;20041;-68
2021/09/22 12:06:05;;;;;;;2.30;2.20;;;18.60;57.70;;;;;;5000170;28;20509;-68
2021/09/22 12:08:32;;;;;;;1.90;1.80;;;18.70;57.40;;;;;;5013313;28;20034;-69
2021/09/22 12:10:59;;;;;;;1.80;1.70;;;18.70;58.00;;;;;;4999838;28;20068;-69
2021/09/22 12:13:25;;;;;;;3.53;2.13;;;18.60;56.60;;;;;;4998673;28;20116;-70
2021/09/22 12:15:55;;;;;;;2.08;1.92;;;18.70;57.20;;;;;;4999682;28;20117;-68
2021/09/22 12:18:21;;;;;;;2.05;1.85;;;18.60;57.10;;;;;;5000232;28;20037;-68
2021/09/22 12:20:47;;;;;;;1.98;1.70;;;18.70;57.40;;;;;;5013091;28;20044;-68
2021/09/22 12:23:18;;;;;;;1.38;1.15;;;18.70;57.40;;;;;;4999286;28;20030;-68
2021/09/22 12:25:43;;;;;;;1.40;1.30;;;18.70;57.30;;;;;;5014944;28;20568;-70
2021/09/22 12:28:17;;;;;;;2.35;1.33;;;18.70;57.00;;;;;;4999324;28;20041;-68
2021/09/22 12:30:42;;;;;;;2.25;1.10;;;18.70;56.30;;;;;;4999332;28;20408;-69
2021/09/22 12:33:09;;;;;;;1.40;1.25;;;18.80;56.90;;;;;;4999015;28;20038;-69
2021/09/22 12:35:38;;;;;;;1.70;1.60;;;18.80;56.80;;;;;;5000176;28;20034;-69
2021/09/22 12:38:07;;;;;;;2.60;1.65;;;18.80;56.50;;;;;;4999296;28;20107;-69
2021/09/22 12:40:36;;;;;;;2.63;1.48;;;18.80;56.40;;;;;;4999012;28;20070;-68
2021/09/22 12:43:24;;;;;;;2.28;1.50;;;18.80;56.60;;;;;;4999354;28;20037;-69